METAR Data
IDs: Format: Raw Decoded Include TAF

Data at: 1209 UTC 23 Sep 2018

KEWN 231154Z 00000KT 7SM CLR 21/20 A3011 RMK AO2 SLP196 T02060200 10206 20172 53009
KEWN 231056Z 00000KT 7SM CLR 18/18 A3010 RMK AO2 T01780178
KEWN 231054Z 00000KT 1 3/4SM BR CLR 18/18 A3010 RMK AO2 SLP191 T01780178
KEWN 231046Z 00000KT 1 1/2SM BR CLR 18/18 A3010 RMK AO2 VIS 1/2V5 T01780178
KEWN 230954Z 00000KT 6SM BR CLR 19/19 A3009 RMK AO2 SLP189 T01890189
KEWN 230917Z AUTO 00000KT 4SM BR FEW003 18/18 A3008 RMK AO2 T01830183
KEWN 230912Z AUTO 00000KT 1 1/4SM BR FEW003 18/18 A3009 RMK AO2 T01830183
KEWN 230854Z AUTO 00000KT 6SM BR SCT003 18/18 A3008 RMK AO2 SLP187 T01830183 58008
KEWN 230844Z AUTO 00000KT 6SM BR FEW003 18/18 A3009 RMK AO2 T01830183
KEWN 230840Z AUTO 00000KT 2 1/2SM BR CLR 18/18 A3009 RMK AO2 T01830183
KEWN 230838Z AUTO 00000KT 3/4SM BR CLR 18/18 A3009 RMK AO2 T01830183
KEWN 230826Z AUTO 00000KT 1/2SM FG VV003 19/19 A3009 RMK AO2 T01890189
KEWN 230824Z AUTO 00000KT 1SM BR VV003 18/18 A3009 RMK AO2 T01830183
KEWN 230810Z AUTO 00000KT 4SM BR SCT003 19/19 A3009 RMK AO2 T01890189
KEWN 230803Z AUTO 00000KT 2 1/2SM BR FEW003 19/19 A3009 RMK AO2 VIS 3/4V5 T01890189
KEWN 230754Z AUTO 00000KT 1 3/4SM BR CLR 18/18 A3009 RMK AO2 SLP190 T01830183
KEWN 230735Z AUTO 00000KT 4SM BR CLR 19/19 A3010 RMK AO2 T01890189
KEWN 230729Z AUTO 00000KT 1 1/4SM BR CLR 19/19 A3010 RMK AO2 VIS 1/2V5 T01890189
KEWN 230721Z AUTO 00000KT 3SM BR CLR 19/19 A3010 RMK AO2 T01940194
KEWN 230714Z AUTO 00000KT 2 1/2SM BR CLR 19/19 A3010 RMK AO2 VIS 1 1/4V5 T01890189
KEWN 230701Z AUTO 00000KT 4SM BR CLR 19/19 A3010 RMK AO2 T01890189
KEWN 230654Z AUTO 00000KT 1 3/4SM BR CLR 19/19 A3010 RMK AO2 SLP194 T01890189
KEWN 230603Z AUTO 00000KT 4SM BR CLR 19/19 A3011 RMK AO2 T01940194
KEWN 230600Z AUTO 00000KT 1SM BR CLR 19/19 A3011 RMK AO2 T01940194
KEWN 230554Z AUTO 00000KT 1/4SM FG CLR 19/19 A3011 RMK AO2 SLP195 T01940194 10244 20189 50000
KEWN 230546Z AUTO 00000KT 1/2SM FG CLR 19/19 A3011 RMK AO2 T01890189
KEWN 230544Z AUTO 00000KT 1 1/4SM BR CLR 19/19 A3011 RMK AO2 T01940194
KEWN 230454Z AUTO 00000KT 9SM CLR 20/20 A3012 RMK AO2 SLP197 T02000200 403060161
KEWN 230354Z AUTO 00000KT 10SM CLR 21/21 A3011 RMK AO2 SLP197 T02110206
KEWN 230254Z AUTO 00000KT 10SM CLR 22/21 A3011 RMK AO2 SLP195 T02170206 51011
KEWN 230154Z AUTO 15003KT 10SM CLR 23/21 A3010 RMK AO2 SLP193 T02280206
KEWN 230054Z 16003KT 10SM CLR 23/21 A3009 RMK AO2 SLP188 T02330206
KEWN 222354Z 16005KT 10SM CLR 24/21 A3008 RMK AO2 SLP184 T02440211 10306 20244 51007
KEWN 222254Z 17007KT 10SM CLR 26/22 A3007 RMK AO2 SLP182 T02610217
KEWN 222154Z 13005KT 10SM CLR 28/22 A3006 RMK AO2 SLP180 T02830217
KEWN 222054Z 00000KT 10SM CLR 30/21 A3005 RMK AO2 SLP177 T03000211 56012
KEWN 221954Z 19005KT 10SM SCT044 31/22 A3006 RMK AO2 SLP178 T03060217 $
KEWN 221854Z 18003KT 9SM BKN042 30/22 A3007 RMK AO2 SLP183 T03000222 $
KEWN 221754Z 26005KT 7SM FEW039 30/22 A3009 RMK AO2 SLP188 T03000217 10300 20183 58018 $
KEWN 221654Z 00000KT 10SM CLR 28/20 A3011 RMK AO2 SLP195 T02830200 $
KEWN 221554Z 00000KT 10SM BR CLR 28/21 A3012 RMK AO2 SLP201 T02780211 $
KEWN 221454Z 21004KT 10SM BR CLR 27/22 A3014 RMK AO2 SLP206 T02670217 50000 $
KEWN 221354Z VRB03KT 10SM BR FEW055 24/22 A3015 RMK AO2 SLP207 T02440217 $
KEWN 221254Z 00000KT 8SM BR CLR 22/21 A3014 RMK AO2 SLP207 T02220211 $
KEWN 221154Z 00000KT 5SM BR CLR 18/ A3014 RMK AO2 SLP206 T0183 51009 $
KEWN 221054Z 00000KT 5SM BR CLR 16/16 A3013 RMK AO2 SLP203 T01610161 $
KEWN 221023Z 00000KT 5SM BR SCT004 17/17 A3013 RMK AO2 T01720172 $
KEWN 220954Z 00000KT 5SM BR CLR 17/17 A3013 RMK AO2 SLP201 T01670167 $
KEWN 220936Z AUTO 00000KT 3SM BR SCT005 17/17 A3012 RMK AO2 T01720172 $
KEWN 220921Z AUTO 00000KT 3SM BR BKN005 17/17 A3012 RMK AO2 T01720172 $
KEWN 220914Z AUTO 00000KT 1SM BR VV005 17/17 A3012 RMK AO2 T01720172 $
KEWN 220902Z AUTO 00000KT 1/4SM FG VV005 17/17 A3012 RMK AO2 T01670167 $
KEWN 220854Z AUTO 00000KT 3/4SM BR VV006 17/17 A3011 RMK AO2 SLP197 T01670167 56009 $
KEWN 220847Z AUTO 00000KT 1SM BR VV006 17/17 A3011 RMK AO2 T01670167 $
KEWN 220754Z AUTO 00000KT 4SM BR FEW005 17/17 A3012 RMK AO2 SLP198 T01720172 $
KEWN 220743Z AUTO 00000KT 1 3/4SM BR SCT005 18/18 A3012 RMK AO2 T01780178 $
KEWN 220737Z AUTO 00000KT 4SM BR SCT005 18/18 A3012 RMK AO2 T01780178 $
KEWN 220735Z AUTO 00000KT 1SM BR VV005 18/18 A3012 RMK AO2 T01780178 $
KEWN 220721Z AUTO 00000KT 1/4SM FG VV005 18/18 A3013 RMK AO2 T01780178 $
KEWN 220712Z AUTO 00000KT 1 3/4SM BR CLR 18/18 A3013 RMK AO2 T01830183 $
KEWN 220654Z AUTO 00000KT 7SM CLR A3012 RMK AO2 SLP201 $
KEWN 220628Z AUTO 18003KT 4SM HZ CLR A3013 RMK AO2 $
KEWN 220624Z AUTO 18003KT 1 1/4SM BR CLR A3013 RMK AO2 $
KEWN 220617Z AUTO 00000KT 2SM BR FEW008 A3013 RMK AO2 $
KEWN 220554Z AUTO 00000KT 8SM CLR 19/19 A3014 RMK AO2 SLP205 T01940194 10228 20183 58005
KEWN 220526Z AUTO 00000KT 7SM FEW010 19/19 A3015 RMK AO2 T01890189
KEWN 220519Z AUTO 00000KT 1 1/2SM BR FEW010 19/19 A3015 RMK AO2 T01890189
KEWN 220511Z AUTO 00000KT 1/4SM FG VV010 19/19 A3015 RMK AO2 T01890189
KEWN 220503Z AUTO 00000KT 1/2SM FG CLR 19/19 A3016 RMK AO2 T01890189
KEWN 220454Z AUTO 00000KT 3/4SM BR CLR 19/19 A3015 RMK AO2 SLP210 T01940194 402830183
KEWN 220451Z AUTO 00000KT 1 1/4SM BR CLR 19/19 A3015 RMK AO2
KEWN 220445Z AUTO 00000KT 3SM BR CLR 19/19 A3016 RMK AO2 T01940194
KEWN 220432Z AUTO 00000KT 3/4SM BR CLR 19/19 A3016 RMK AO2 T01890189
KEWN 220354Z AUTO 00000KT 8SM CLR 19/19 A3016 RMK AO2 SLP212 T01940194
KEWN 220254Z AUTO 00000KT 10SM CLR 20/19 A3016 RMK AO2 SLP211 T02000194 51007
KEWN 220154Z AUTO 00000KT 10SM CLR 21/20 A3015 RMK AO2 SLP210 T02060200
KEWN 220054Z 15003KT 10SM CLR 22/21 A3015 RMK AO2 SLP208 T02170206